الصفحة الرئيسية
METAR-TAF:

METAR-TAF

مطار :

مطار سونان الدولي

بيونغيانغ, كوريا الشمالية

دائرة عرض: 39-02N, خط طول: 125-47E, ارتفاع: 36 متر

METAR: مفقودة

زمن: 22:36 (13:36 UTC)

توقعات

تاريخ ووقت الإصدار 9ساعات و 36 دقيقة قبل الساعة 04:00UTC
التوقعات صالحة من30 الساعة 06 UTC إلى 31 الساعة 06 UTC
ريح 6 عقدة من الجنوب
الرؤية 10 كم أو أكثر
ملبد بالغيوم على ارتفاع 4000 قدم
أصبح
من 30 الساعة 15 UTC إلى 30 الساعة 17 UTC
ريح 6 عقدة من الجنوب الغربي
غيوم متفرقة على ارتفاع 3300 قدم

TAF: ZKPY 300400Z 3006/3106 18003MPS 9999 OVC040 TX22/3006Z TN13/3021Z BECMG 3015/3017 22003MPS SCT033

أرصاد الطقس والتوقعات من أكثر من 4000 مطار (تقارير الطقس للمطار METAR والتنبؤ بالطقس بالمطارTAF).

المحطات المتاحة هي النقط الصفراء والحمراء على الخريطة.

حرك المؤشر فوق النقطة لمعرفة اسم المحطة.

ثم انقر لمعرفة أرصاد وتوقعات الطقس.

لتغيير الخارطة: اضغط على الأزرار الخضراء مع رمز الصليب الأسود للتكبير. على الزر الأخضر مع شرطة للتصغير، أو على الأسهم الخضراء للخرائط المجاورة.


METAR-TAF: